Time;durP1;ratioP1;P1;durP2;ratioP2;P2;SDS_P1;SDS_P2;PMS_P1;PMS_P2;Temp;Humidity;BMP_temperature;BMP_pressure;BME280_temperature;BME280_humidity;BME280_pressure;Samples;Min_cycle;Max_cycle;Signal;HPM_P1;HPM_P2
2021/10/18 00:02:38;;;;;;;12.68;7.68;;;10.50;99.90;;;;;;5066872;28;20048;-71
2021/10/18 00:05:42;;;;;;;13.35;6.95;;;10.40;99.90;;;;;;5066543;28;20395;-71
2021/10/18 00:08:46;;;;;;;10.85;7.55;;;10.30;99.90;;;;;;5063219;28;20047;-72
2021/10/18 00:11:50;;;;;;;12.85;7.55;;;10.30;99.90;;;;;;5059555;28;20403;-72
2021/10/18 00:14:54;;;;;;;12.27;7.45;;;10.20;99.90;;;;;;5059589;28;20056;-71
2021/10/18 00:18:01;;;;;;;9.95;6.88;;;10.10;99.90;;;;;;5062581;28;20498;-72
2021/10/18 00:21:05;;;;;;;12.57;7.80;;;10.20;99.90;;;;;;5061153;28;20379;-71
2021/10/18 00:24:08;;;;;;;11.75;7.13;;;10.10;99.90;;;;;;5057546;28;20039;-71
2021/10/18 00:27:13;;;;;;;13.63;7.57;;;10.10;99.90;;;;;;5058157;28;20051;-72
2021/10/18 00:30:17;;;;;;;16.10;9.13;;;10.10;99.90;;;;;;5058068;28;20051;-72
2021/10/18 00:33:22;;;;;;;14.80;10.48;;;10.10;99.90;;;;;;5058710;28;20482;-71
2021/10/18 00:36:26;;;;;;;14.20;9.43;;;10.10;99.90;;;;;;5060531;28;20402;-71
2021/10/18 00:39:30;;;;;;;17.17;11.07;;;10.10;99.90;;;;;;5065978;28;20051;-71
2021/10/18 00:42:34;;;;;;;21.05;13.15;;;10.00;99.90;;;;;;5058392;28;20044;-71
2021/10/18 00:45:39;;;;;;;18.95;12.43;;;10.00;99.90;;;;;;5057238;28;20044;-71
2021/10/18 00:48:43;;;;;;;20.50;11.60;;;9.90;99.90;;;;;;5064788;28;20043;-71
2021/10/18 00:51:47;;;;;;;18.20;11.48;;;9.80;99.90;;;;;;5064195;28;20052;-71
2021/10/18 00:54:53;;;;;;;19.95;11.82;;;9.70;99.90;;;;;;5059541;28;20043;-71
2021/10/18 00:57:57;;;;;;;19.95;10.85;;;9.60;99.90;;;;;;5057017;28;20600;-71
2021/10/18 01:01:02;;;;;;;21.42;11.70;;;9.50;99.90;;;;;;5067280;28;20040;-71
2021/10/18 01:04:06;;;;;;;17.63;11.52;;;9.50;99.90;;;;;;5064444;28;20031;-72
2021/10/18 01:07:11;;;;;;;16.42;10.00;;;9.40;99.90;;;;;;5058994;28;20048;-71
2021/10/18 01:10:15;;;;;;;15.13;10.25;;;9.40;99.90;;;;;;5066415;28;20052;-71
2021/10/18 01:13:20;;;;;;;18.15;11.65;;;9.40;99.90;;;;;;5061036;28;20055;-71
2021/10/18 01:16:24;;;;;;;19.58;11.75;;;9.30;99.90;;;;;;5061606;28;20039;-71
2021/10/18 01:19:28;;;;;;;19.58;12.10;;;9.30;99.90;;;;;;5060025;28;20044;-71
2021/10/18 01:22:32;;;;;;;19.40;10.88;;;9.20;99.90;;;;;;5063383;28;20494;-71
2021/10/18 01:25:38;;;;;;;24.30;11.80;;;9.20;99.90;;;;;;5062872;28;20051;-71
2021/10/18 01:28:42;;;;;;;18.00;10.82;;;9.20;99.90;;;;;;5059707;28;20391;-71
2021/10/18 01:31:46;;;;;;;17.50;10.70;;;9.20;99.90;;;;;;5058380;28;20498;-71
2021/10/18 01:34:50;;;;;;;15.20;10.15;;;9.30;99.90;;;;;;5058971;28;20048;-71
2021/10/18 01:37:54;;;;;;;16.70;11.23;;;9.30;99.90;;;;;;5064112;28;20048;-71
2021/10/18 01:40:58;;;;;;;19.05;11.23;;;9.30;99.90;;;;;;5066968;28;20048;-71
2021/10/18 01:44:02;;;;;;;18.65;11.50;;;9.30;99.90;;;;;;5065108;28;20059;-71
2021/10/18 01:47:06;;;;;;;18.90;10.77;;;9.30;99.90;;;;;;5064993;28;20051;-71
2021/10/18 01:50:21;;;;;;;18.05;11.52;;;9.30;99.90;;;;;;5064541;28;20299;-71
2021/10/18 01:53:25;;;;;;;17.63;10.35;;;9.30;99.90;;;;;;5062225;28;20047;-71
2021/10/18 01:56:31;;;;;;;21.05;11.90;;;9.20;99.90;;;;;;5056387;28;20070;-71
2021/10/18 01:59:35;;;;;;;16.67;10.82;;;9.10;99.90;;;;;;5060219;28;20051;-71
2021/10/18 02:02:40;;;;;;;19.25;12.07;;;9.10;99.90;;;;;;5064937;28;20043;-71
2021/10/18 02:05:44;;;;;;;19.15;11.95;;;9.00;99.90;;;;;;5059859;28;20035;-71
2021/10/18 02:08:48;;;;;;;19.52;12.57;;;9.00;99.90;;;;;;5059959;28;20048;-71
2021/10/18 02:11:52;;;;;;;21.10;13.13;;;8.90;99.90;;;;;;5070389;28;20395;-71
2021/10/18 02:14:56;;;;;;;19.48;12.60;;;8.90;99.90;;;;;;5068481;28;20038;-71
2021/10/18 02:18:00;;;;;;;21.15;13.63;;;8.80;99.90;;;;;;5064718;28;20056;-71
2021/10/18 02:21:05;;;;;;;20.40;12.52;;;8.80;99.90;;;;;;5065940;28;20497;-71
2021/10/18 02:24:09;;;;;;;19.48;12.88;;;8.70;99.90;;;;;;5070252;28;20044;-71
2021/10/18 02:27:14;;;;;;;23.02;13.48;;;8.60;99.90;;;;;;5061294;28;20040;-72
2021/10/18 02:30:19;;;;;;;20.50;13.07;;;8.50;99.90;;;;;;5065550;28;20490;-71
2021/10/18 02:33:24;;;;;;;19.65;13.45;;;8.40;99.90;;;;;;5054875;28;20044;-71
2021/10/18 02:36:28;;;;;;;17.70;11.63;;;8.40;99.90;;;;;;5061712;28;20532;-71
2021/10/18 02:39:33;;;;;;;14.75;10.57;;;8.50;99.90;;;;;;5067833;28;20036;-71
2021/10/18 02:42:37;;;;;;;15.05;9.75;;;8.50;99.90;;;;;;5065113;28;20529;-71
2021/10/18 02:45:42;;;;;;;13.88;8.95;;;8.50;99.90;;;;;;5063233;28;20048;-72
2021/10/18 02:48:47;;;;;;;13.10;8.73;;;8.50;99.90;;;;;;5069139;28;20415;-71
2021/10/18 02:51:52;;;;;;;15.77;9.60;;;8.60;99.90;;;;;;5068393;28;20051;-71
2021/10/18 02:54:56;;;;;;;17.23;8.95;;;8.60;99.90;;;;;;5062550;28;20055;-71
2021/10/18 02:58:00;;;;;;;16.40;9.40;;;8.60;99.90;;;;;;5068277;28;20047;-71
2021/10/18 03:01:04;;;;;;;16.15;9.82;;;8.50;99.90;;;;;;5067564;28;20502;-71
2021/10/18 03:04:08;;;;;;;17.58;10.75;;;8.50;99.90;;;;;;5057418;28;20039;-71
2021/10/18 03:07:12;;;;;;;17.85;11.20;;;8.50;99.90;;;;;;5062558;28;20048;-71
2021/10/18 03:10:17;;;;;;;15.80;11.00;;;8.40;99.90;;;;;;5070711;28;20388;-71
2021/10/18 03:13:21;;;;;;;21.13;11.57;;;8.40;99.90;;;;;;5062132;28;20039;-71
2021/10/18 03:16:26;;;;;;;22.75;13.45;;;8.30;99.90;;;;;;5064347;28;20052;-71
2021/10/18 03:19:30;;;;;;;21.80;13.45;;;8.30;99.90;;;;;;5065799;28;20370;-71
2021/10/18 03:22:34;;;;;;;23.13;14.10;;;8.30;99.90;;;;;;5059699;28;20449;-71
2021/10/18 03:25:38;;;;;;;21.27;13.57;;;8.30;99.90;;;;;;5068457;28;20040;-71
2021/10/18 03:28:45;;;;;;;23.45;14.00;;;8.30;99.90;;;;;;5063098;28;20035;-71
2021/10/18 03:31:49;;;;;;;22.40;14.15;;;8.20;99.90;;;;;;5059382;28;20044;-71
2021/10/18 03:34:54;;;;;;;23.40;13.80;;;8.10;99.90;;;;;;5066066;28;20056;-71
2021/10/18 03:37:58;;;;;;;31.40;14.20;;;8.10;99.90;;;;;;5067748;28;20392;-71
2021/10/18 03:41:03;;;;;;;19.85;13.18;;;8.00;99.90;;;;;;5065110;28;20047;-71
2021/10/18 03:44:08;;;;;;;22.92;13.50;;;8.00;99.90;;;;;;5060525;28;20209;-72
2021/10/18 03:47:11;;;;;;;31.70;16.63;;;8.00;99.90;;;;;;5063988;28;20051;-71
2021/10/18 03:50:16;;;;;;;29.02;14.55;;;7.90;99.90;;;;;;5068248;28;20035;-72
2021/10/18 03:53:20;;;;;;;32.35;16.50;;;7.80;99.90;;;;;;5058071;28;20059;-71
2021/10/18 03:56:25;;;;;;;27.00;16.10;;;7.80;99.90;;;;;;5063845;28;20044;-71
2021/10/18 03:59:29;;;;;;;25.70;15.10;;;7.80;99.90;;;;;;5064274;28;20032;-71
2021/10/18 04:02:34;;;;;;;27.95;15.75;;;7.80;99.90;;;;;;5060706;28;20059;-71
2021/10/18 04:05:38;;;;;;;29.35;16.15;;;7.90;99.90;;;;;;5065905;28;20490;-71
2021/10/18 04:08:42;;;;;;;30.80;18.42;;;7.90;99.90;;;;;;5066360;28;20051;-71
2021/10/18 04:11:46;;;;;;;30.50;17.45;;;7.90;99.90;;;;;;5063708;28;20052;-71
2021/10/18 04:14:50;;;;;;;30.58;18.05;;;8.00;99.90;;;;;;5060265;28;20042;-71
2021/10/18 04:17:54;;;;;;;26.58;16.95;;;7.90;99.90;;;;;;5060001;28;20047;-72
2021/10/18 04:20:59;;;;;;;29.95;17.45;;;7.90;99.90;;;;;;5063990;28;20042;-71
2021/10/18 04:24:04;;;;;;;30.92;16.63;;;7.80;99.90;;;;;;5067613;28;20218;-71
2021/10/18 04:27:08;;;;;;;25.80;15.70;;;7.70;99.90;;;;;;5065434;28;20127;-71
2021/10/18 04:30:12;;;;;;;27.38;16.27;;;7.70;99.90;;;;;;5058816;28;20043;-71
2021/10/18 04:33:17;;;;;;;26.17;15.52;;;7.60;99.90;;;;;;5059432;28;20215;-71
2021/10/18 04:36:21;;;;;;;25.65;14.27;;;7.60;99.90;;;;;;5059534;28;20387;-71
2021/10/18 04:39:25;;;;;;;24.98;14.60;;;7.60;99.90;;;;;;5058268;28;20487;-71
2021/10/18 04:42:31;;;;;;;26.15;15.63;;;7.60;99.90;;;;;;5058116;28;20391;-71
2021/10/18 04:45:35;;;;;;;28.80;17.13;;;7.50;99.90;;;;;;5066201;28;20043;-72
2021/10/18 04:48:41;;;;;;;27.30;16.90;;;7.50;99.90;;;;;;5062345;28;20063;-71
2021/10/18 04:51:45;;;;;;;29.38;16.65;;;7.40;99.90;;;;;;5051279;28;20051;-71
2021/10/18 04:54:49;;;;;;;28.65;17.10;;;7.40;99.90;;;;;;5059656;28;20060;-71
2021/10/18 04:58:01;;;;;;;31.85;16.67;;;7.40;99.90;;;;;;5069433;28;20052;-71
2021/10/18 05:01:05;;;;;;;39.05;18.20;;;7.30;99.90;;;;;;5060684;28;20040;-71
2021/10/18 05:04:09;;;;;;;27.13;16.85;;;7.40;99.90;;;;;;5059164;28;20048;-72
2021/10/18 05:07:14;;;;;;;34.30;17.13;;;7.30;99.90;;;;;;5058132;28;20055;-71
2021/10/18 05:10:17;;;;;;;34.58;17.13;;;7.30;99.90;;;;;;5062378;28;20051;-71
2021/10/18 05:13:22;;;;;;;30.73;18.02;;;7.30;99.90;;;;;;5065775;28;20056;-71
2021/10/18 05:16:26;;;;;;;28.05;17.15;;;7.20;99.90;;;;;;5063680;28;20399;-71
2021/10/18 05:19:30;;;;;;;30.75;17.90;;;7.20;99.90;;;;;;5064918;28;20032;-71
2021/10/18 05:22:34;;;;;;;42.30;17.48;;;7.20;99.90;;;;;;5059869;28;20048;-71
2021/10/18 05:25:38;;;;;;;39.50;18.15;;;7.10;99.90;;;;;;5065170;28;20551;-71
2021/10/18 05:28:42;;;;;;;35.50;17.27;;;7.00;99.90;;;;;;5064190;28;20044;-71
2021/10/18 05:31:47;;;;;;;31.02;17.50;;;6.90;99.90;;;;;;5062121;28;20047;-71
2021/10/18 05:34:51;;;;;;;39.97;18.27;;;6.90;99.90;;;;;;5069817;28;20052;-71
2021/10/18 05:37:55;;;;;;;31.55;17.15;;;6.90;99.90;;;;;;5069622;28;20048;-71
2021/10/18 05:40:59;;;;;;;28.33;17.73;;;6.90;99.90;;;;;;5069478;28;20040;-71
2021/10/18 05:44:03;;;;;;;34.22;18.63;;;6.90;99.90;;;;;;5064144;28;20503;-71
2021/10/18 05:47:08;;;;;;;33.00;18.33;;;7.00;99.90;;;;;;5071031;28;20051;-71
2021/10/18 05:50:12;;;;;;;31.67;18.55;;;7.10;99.90;;;;;;5067044;28;20052;-71
2021/10/18 05:53:16;;;;;;;28.88;16.42;;;7.10;99.90;;;;;;5063287;28;20050;-71
2021/10/18 05:56:20;;;;;;;33.40;16.65;;;7.20;99.90;;;;;;5072248;28;20052;-72
2021/10/18 05:59:24;;;;;;;28.95;16.15;;;7.30;99.90;;;;;;5061074;28;20055;-72
2021/10/18 06:02:28;;;;;;;30.83;17.20;;;7.40;99.90;;;;;;5063854;28;20040;-72
2021/10/18 06:05:33;;;;;;;25.88;15.35;;;7.40;99.90;;;;;;5061521;28;20282;-72
2021/10/18 06:08:38;;;;;;;26.13;14.40;;;7.50;99.90;;;;;;5059413;28;20040;-72
2021/10/18 06:11:42;;;;;;;24.50;15.02;;;7.60;99.90;;;;;;5063729;28;20060;-71
2021/10/18 06:14:47;;;;;;;28.00;14.45;;;8.80;99.90;;;;;;5062319;28;20047;-72
2021/10/18 06:17:51;;;;;;;25.48;12.90;;;11.60;99.90;;;;;;5065236;28;20047;-72
2021/10/18 06:20:56;;;;;;;19.95;11.07;;;14.40;99.90;;;;;;5064093;28;20067;-72
2021/10/18 06:24:01;;;;;;;20.35;10.38;;;17.00;99.90;;;;;;5066792;28;20052;-72
2021/10/18 06:27:05;;;;;;;20.25;11.38;;;18.90;99.90;;;;;;5065201;28;20048;-72
2021/10/18 06:30:09;;;;;;;15.63;10.07;;;19.30;97.00;;;;;;5060762;28;20044;-73
2021/10/18 06:33:14;;;;;;;19.05;10.65;;;19.10;96.50;;;;;;5063541;28;20052;-72
2021/10/18 06:36:18;;;;;;;18.60;10.60;;;19.20;95.90;;;;;;5063450;28;20052;-73
2021/10/18 06:39:22;;;;;;;15.32;10.10;;;20.00;95.10;;;;;;5064447;28;20501;-73
2021/10/18 06:42:26;;;;;;;13.85;9.80;;;20.00;94.10;;;;;;5059427;28;20044;-73
2021/10/18 06:45:31;;;;;;;17.08;9.40;;;20.10;94.20;;;;;;5067832;28;20498;-73
2021/10/18 06:48:37;;;;;;;14.10;9.68;;;20.70;93.50;;;;;;5063487;28;20051;-72
2021/10/18 06:51:51;;;;;;;14.45;9.57;;;21.00;92.70;;;;;;5065307;28;20427;-73
2021/10/18 06:54:55;;;;;;;14.02;9.23;;;20.80;92.50;;;;;;5065964;28;20051;-73
2021/10/18 06:58:00;;;;;;;12.80;9.60;;;20.40;92.70;;;;;;5066696;28;20048;-72
2021/10/18 07:01:05;;;;;;;13.40;9.23;;;20.20;92.50;;;;;;5066711;28;20044;-73
2021/10/18 07:04:09;;;;;;;13.57;9.82;;;19.30;93.00;;;;;;5066477;28;20060;-72
2021/10/18 07:07:13;;;;;;;15.18;10.43;;;19.30;93.40;;;;;;5067522;28;20413;-73
2021/10/18 07:10:17;;;;;;;13.10;9.90;;;20.00;93.10;;;;;;5062546;28;20039;-72
2021/10/18 07:13:21;;;;;;;16.60;10.70;;;21.20;92.00;;;;;;5067562;28;20055;-72
2021/10/18 07:16:26;;;;;;;13.52;9.40;;;21.50;91.20;;;;;;5061894;28;20051;-72
2021/10/18 07:19:30;;;;;;;15.60;10.23;;;19.80;91.60;;;;;;5058625;28;20245;-72
2021/10/18 07:22:56;;;;;;;13.73;10.02;;;20.10;92.30;;;;;;5058816;28;20095;-73
2021/10/18 07:26:03;;;;;;;22.10;10.23;;;20.40;91.80;;;;;;5070144;28;20051;-72
2021/10/18 07:29:07;;;;;;;12.27;9.13;;;19.60;92.40;;;;;;5062541;28;20044;-72
2021/10/18 07:32:11;;;;;;;14.32;9.32;;;19.80;93.00;;;;;;5060038;28;20530;-72
2021/10/18 07:35:18;;;;;;;11.55;8.95;;;21.10;91.00;;;;;;5064757;28;20392;-73
2021/10/18 07:38:24;;;;;;;14.73;9.45;;;20.80;90.60;;;;;;5069226;28;20048;-72
2021/10/18 07:41:28;;;;;;;15.13;9.55;;;19.70;91.30;;;;;;5058916;28;20044;-71
2021/10/18 07:44:33;;;;;;;15.75;9.27;;;19.20;92.50;;;;;;5059460;28;20043;-72
2021/10/18 07:47:37;;;;;;;13.95;8.90;;;19.20;92.50;;;;;;5061246;28;20371;-71
2021/10/18 07:50:41;;;;;;;12.80;9.02;;;19.00;92.30;;;;;;5053198;28;20067;-72
2021/10/18 07:53:45;;;;;;;12.82;8.32;;;18.20;92.70;;;;;;5058881;28;20052;-72
2021/10/18 07:56:49;;;;;;;13.02;9.75;;;18.70;93.20;;;;;;5061457;28;20052;-72
2021/10/18 07:59:53;;;;;;;12.40;9.32;;;18.30;93.30;;;;;;5066641;28;20051;-72
2021/10/18 08:02:57;;;;;;;13.43;9.50;;;20.00;92.00;;;;;;5061253;28;20048;-72
2021/10/18 08:06:01;;;;;;;13.02;9.70;;;20.10;91.10;;;;;;5062142;28;20047;-73
2021/10/18 08:09:08;;;;;;;11.70;9.40;;;20.70;91.20;;;;;;5064710;28;20055;-70
2021/10/18 08:12:12;;;;;;;12.73;9.20;;;21.80;90.00;;;;;;5062361;28;20043;-70
2021/10/18 08:15:16;;;;;;;12.73;9.60;;;23.30;85.60;;;;;;5056666;28;20510;-70
2021/10/18 08:18:20;;;;;;;12.88;9.65;;;22.40;84.90;;;;;;5063864;28;20055;-72
2021/10/18 08:21:25;;;;;;;14.23;10.73;;;23.40;84.80;;;;;;5058819;28;20051;-72
2021/10/18 08:24:29;;;;;;;16.40;11.10;;;22.10;85.90;;;;;;5065266;28;20391;-72
2021/10/18 08:27:34;;;;;;;14.65;10.93;;;21.50;86.90;;;;;;5060065;28;20478;-72
2021/10/18 08:30:39;;;;;;;16.55;11.52;;;20.60;89.40;;;;;;5064351;28;20052;-72
2021/10/18 08:33:43;;;;;;;19.15;11.70;;;20.60;90.00;;;;;;5062322;28;20047;-70
2021/10/18 08:36:48;;;;;;;15.30;11.07;;;20.90;89.40;;;;;;5066001;28;20047;-72
2021/10/18 08:46:20;;;;;;;17.63;13.18;;;23.80;84.50;;;;;;5062144;28;20051;-70
2021/10/18 08:49:25;;;;;;;19.73;12.15;;;22.20;84.60;;;;;;5060350;28;20087;-72
2021/10/18 08:52:29;;;;;;;16.75;11.93;;;22.10;87.00;;;;;;5060224;28;20059;-72
2021/10/18 08:55:39;;;;;;;20.33;11.55;;;22.70;85.90;;;;;;5067791;28;20071;-71
2021/10/18 08:58:43;;;;;;;16.65;10.85;;;22.90;84.70;;;;;;5064487;28;20040;-71
2021/10/18 09:01:49;;;;;;;17.98;11.15;;;24.30;82.80;;;;;;5058506;28;20087;-72
2021/10/18 09:04:53;;;;;;;16.10;10.15;;;24.50;82.60;;;;;;5066546;28;20048;-70
2021/10/18 09:07:57;;;;;;;14.05;9.50;;;24.30;81.40;;;;;;5060744;28;20035;-70
2021/10/18 09:11:10;;;;;;;11.32;8.98;;;25.40;81.50;;;;;;5063223;28;20526;-71
2021/10/18 09:14:15;;;;;;;14.65;8.85;;;25.60;78.90;;;;;;5067490;28;20043;-71
2021/10/18 09:17:34;;;;;;;14.77;8.77;;;25.20;78.20;;;;;;5070442;28;20044;-72
2021/10/18 09:20:38;;;;;;;9.85;7.60;;;24.80;78.00;;;;;;5064516;28;20387;-70
2021/10/18 09:23:43;;;;;;;11.68;8.15;;;24.00;79.00;;;;;;5058906;28;20124;-73
2021/10/18 09:26:55;;;;;;;12.43;8.00;;;24.30;81.10;;;;;;5059707;28;20048;-71
2021/10/18 09:30:00;;;;;;;10.95;8.00;;;26.80;77.20;;;;;;5063424;28;20052;-72
2021/10/18 09:33:32;;;;;;;11.27;7.32;;;28.00;75.60;;;;;;5065947;28;20040;-72
2021/10/18 09:36:39;;;;;;;12.63;9.00;;;26.60;75.20;;;;;;5069676;28;20083;-70
2021/10/18 09:39:48;;;;;;;9.50;7.47;;;27.30;74.60;;;;;;5069978;28;20375;-72
2021/10/18 09:46:39;;;;;;;9.35;7.13;;;28.60;71.70;;;;;;5063919;28;20044;-70
2021/10/18 10:54:53;;;;;;;6.43;3.40;;;35.40;56.40;;;;;;5064275;28;20035;-70
2021/10/18 10:57:59;;;;;;;3.83;2.72;;;34.80;57.00;;;;;;5058032;28;20036;-72
2021/10/18 11:01:05;;;;;;;4.10;3.20;;;33.40;56.70;;;;;;5067001;28;20051;-72
2021/10/18 11:04:34;;;;;;;3.63;3.08;;;32.90;56.40;;;;;;5059009;28;20060;-72
2021/10/18 11:07:38;;;;;;;3.75;2.97;;;35.80;56.50;;;;;;5065509;28;20043;-70
2021/10/18 11:10:45;;;;;;;5.07;2.75;;;38.10;54.20;;;;;;5059799;28;20048;-72
2021/10/18 11:13:51;;;;;;;5.57;2.63;;;38.60;53.50;;;;;;5059319;28;20048;-71
2021/10/18 11:16:56;;;;;;;3.20;2.22;;;39.70;50.90;;;;;;5058928;28;20407;-73
2021/10/18 11:20:04;;;;;;;2.42;2.20;;;41.40;49.40;;;;;;5066549;28;20243;-72
2021/10/18 11:23:12;;;;;;;2.92;2.28;;;36.50;47.40;;;;;;5066312;28;20048;-72
2021/10/18 11:26:19;;;;;;;5.70;2.55;;;34.20;51.90;;;;;;5064800;28;20040;-70
2021/10/18 11:29:31;;;;;;;6.35;2.72;;;35.50;51.20;;;;;;5056682;28;20044;-71
2021/10/18 11:32:35;;;;;;;5.20;2.50;;;30.60;52.60;;;;;;5056624;28;20040;-72
2021/10/18 11:35:40;;;;;;;3.88;2.10;;;32.30;55.30;;;;;;5068228;28;20044;-71
2021/10/18 11:38:45;;;;;;;9.82;3.40;;;34.30;52.00;;;;;;5066932;28;20072;-72
2021/10/18 11:41:59;;;;;;;2.53;1.75;;;37.30;50.70;;;;;;5064565;28;20044;-72
2021/10/18 11:45:03;;;;;;;3.35;2.13;;;38.50;49.30;;;;;;5069163;28;20055;-71
2021/10/18 11:48:12;;;;;;;3.83;2.00;;;38.50;49.70;;;;;;5063022;28;20051;-70
2021/10/18 11:51:17;;;;;;;2.27;1.87;;;38.30;48.20;;;;;;5061579;28;20051;-71
2021/10/18 11:54:22;;;;;;;2.70;1.80;;;37.50;49.10;;;;;;5067245;28;20056;-72
2021/10/18 11:57:27;;;;;;;2.40;1.98;;;38.40;48.40;;;;;;5060086;28;20047;-72
2021/10/18 12:00:42;;;;;;;4.95;1.80;;;39.10;48.20;;;;;;5066412;28;20044;-71
2021/10/18 12:03:47;;;;;;;1.85;1.38;;;39.50;47.70;;;;;;5069070;28;20044;-72
2021/10/18 12:06:51;;;;;;;2.03;1.65;;;40.70;46.10;;;;;;5058197;28;20836;-73
2021/10/18 12:10:11;;;;;;;4.88;1.60;;;40.00;46.60;;;;;;5057713;28;20040;-71
2021/10/18 12:13:22;;;;;;;1.77;1.35;;;40.10;46.10;;;;;;5058871;28;20087;-72
2021/10/18 12:16:26;;;;;;;1.30;1.20;;;40.00;45.60;;;;;;5058548;28;20068;-71
2021/10/18 12:19:31;;;;;;;1.95;1.40;;;39.30;46.00;;;;;;5065056;28;20521;-71
2021/10/18 12:22:34;;;;;;;4.50;1.15;;;37.40;46.20;;;;;;5060925;28;20494;-71
2021/10/18 12:25:39;;;;;;;1.77;1.35;;;37.70;45.90;;;;;;5062334;28;20032;-72
2021/10/18 12:28:46;;;;;;;2.42;1.50;;;37.70;45.80;;;;;;5068661;28;20051;-71
2021/10/18 12:31:52;;;;;;;2.53;1.45;;;35.60;45.00;;;;;;5061847;28;20044;-71
2021/10/18 12:35:03;;;;;;;1.90;1.30;;;33.30;48.50;;;;;;5067945;28;20043;-71
2021/10/18 12:38:12;;;;;;;4.10;1.90;;;35.40;47.70;;;;;;5060303;28;20044;-72
2021/10/18 12:41:20;;;;;;;2.83;1.50;;;37.00;47.20;;;;;;5064674;28;20044;-73
2021/10/18 12:44:30;;;;;;;1.48;1.35;;;38.90;46.40;;;;;;5058037;28;20044;-72
2021/10/18 12:47:38;;;;;;;6.43;1.70;;;38.70;46.00;;;;;;5060279;28;20506;-72
2021/10/18 12:50:43;;;;;;;5.68;1.80;;;35.50;45.50;;;;;;5063562;28;20047;-71
2021/10/18 12:53:47;;;;;;;2.00;1.80;;;31.00;50.00;;;;;;5062567;28;20039;-72
2021/10/18 12:57:10;;;;;;;2.88;2.10;;;31.40;51.00;;;;;;5066392;28;20043;-71
2021/10/18 13:00:27;;;;;;;2.80;2.15;;;28.10;53.70;;;;;;5059055;28;20126;-71
2021/10/18 13:03:33;;;;;;;3.28;1.80;;;28.40;53.90;;;;;;5057659;28;20040;-71
2021/10/18 13:06:37;;;;;;;1.95;1.65;;;28.10;53.50;;;;;;5059890;28;20047;-71
2021/10/18 13:09:41;;;;;;;2.20;1.70;;;29.50;52.50;;;;;;5058755;28;20052;-72
2021/10/18 13:12:46;;;;;;;3.35;1.80;;;32.00;50.80;;;;;;5057724;28;20043;-72
2021/10/18 13:15:52;;;;;;;2.72;1.90;;;30.90;50.20;;;;;;5069814;28;20044;-72
2021/10/18 13:18:56;;;;;;;2.97;2.05;;;32.80;50.80;;;;;;5065963;28;20242;-72
2021/10/18 13:22:03;;;;;;;3.95;2.30;;;34.20;50.20;;;;;;5061820;28;20043;-71
2021/10/18 13:25:08;;;;;;;2.17;1.80;;;35.80;48.50;;;;;;5061519;28;20044;-72
2021/10/18 13:28:13;;;;;;;2.53;1.98;;;30.90;50.80;;;;;;5066660;28;20051;-72
2021/10/18 13:31:18;;;;;;;2.35;1.73;;;33.00;50.40;;;;;;5060212;28;20035;-72
2021/10/18 13:34:22;;;;;;;2.95;2.05;;;34.30;49.60;;;;;;5062679;28;20044;-72
2021/10/18 13:37:26;;;;;;;2.92;2.08;;;35.50;48.50;;;;;;5058755;28;20047;-72
2021/10/18 13:40:33;;;;;;;2.13;1.92;;;36.60;47.40;;;;;;5066702;28;20044;-72
2021/10/18 13:43:38;;;;;;;2.90;1.80;;;36.60;47.40;;;;;;5062858;28;20061;-72
2021/10/18 13:46:42;;;;;;;4.50;2.25;;;35.60;47.60;;;;;;5055973;28;20043;-72
2021/10/18 13:49:46;;;;;;;3.35;2.17;;;35.20;48.30;;;;;;5060066;28;20044;-72
2021/10/18 13:52:54;;;;;;;14.20;2.72;;;33.80;48.50;;;;;;5066948;28;20044;-72
2021/10/18 13:55:58;;;;;;;2.63;1.83;;;31.30;51.00;;;;;;5070859;28;20047;-72
2021/10/18 13:59:02;;;;;;;2.38;1.67;;;32.40;50.00;;;;;;5064131;28;20060;-72
2021/10/18 14:02:06;;;;;;;2.15;1.75;;;33.40;49.40;;;;;;5065727;28;20034;-72
2021/10/18 14:05:11;;;;;;;2.38;1.50;;;34.20;49.50;;;;;;5053404;28;20044;-72
2021/10/18 14:08:15;;;;;;;2.35;1.60;;;34.00;49.40;;;;;;5052423;28;20391;-71
2021/10/18 14:11:19;;;;;;;3.95;1.80;;;34.50;48.90;;;;;;5061483;28;20055;-72
2021/10/18 14:14:23;;;;;;;8.23;1.67;;;35.00;47.80;;;;;;5066522;28;20107;-72
2021/10/18 14:17:27;;;;;;;2.55;1.63;;;35.60;47.30;;;;;;5055627;28;20411;-71
2021/10/18 14:20:31;;;;;;;3.25;1.48;;;35.40;47.50;;;;;;5063211;28;20059;-72
2021/10/18 14:23:36;;;;;;;1.98;1.50;;;35.70;47.00;;;;;;5070689;28;20044;-72
2021/10/18 14:26:41;;;;;;;1.60;1.42;;;35.20;47.60;;;;;;5067287;28;20051;-72
2021/10/18 14:29:45;;;;;;;3.22;1.60;;;34.30;48.20;;;;;;5056139;28;20310;-72
2021/10/18 14:32:53;;;;;;;3.10;1.60;;;33.80;48.80;;;;;;5066198;28;20047;-72
2021/10/18 14:35:58;;;;;;;1.85;1.58;;;32.70;49.10;;;;;;5063348;28;20064;-72
2021/10/18 14:39:03;;;;;;;2.60;1.80;;;32.10;49.00;;;;;;5062897;28;20052;-72
2021/10/18 14:42:08;;;;;;;3.95;1.65;;;31.70;49.30;;;;;;5059376;28;20060;-71
2021/10/18 14:45:12;;;;;;;2.80;1.60;;;31.70;50.10;;;;;;5062046;28;20513;-72
2021/10/18 14:48:16;;;;;;;2.50;1.63;;;29.10;51.10;;;;;;5065982;28;20055;-71
2021/10/18 14:51:25;;;;;;;2.42;1.75;;;28.60;51.40;;;;;;5053700;28;20048;-72
2021/10/18 14:54:29;;;;;;;7.03;1.83;;;28.90;53.10;;;;;;5066436;28;20047;-71
2021/10/18 14:57:33;;;;;;;4.50;1.90;;;27.70;52.40;;;;;;5051973;28;20507;-71
2021/10/18 15:00:39;;;;;;;3.58;1.83;;;25.50;55.70;;;;;;5059880;28;20055;-71
2021/10/18 15:03:43;;;;;;;3.80;1.70;;;25.00;57.40;;;;;;5062068;28;20039;-71
2021/10/18 15:06:48;;;;;;;2.70;1.70;;;26.20;56.10;;;;;;5054148;28;20040;-71
2021/10/18 15:09:52;;;;;;;3.13;1.65;;;27.20;55.40;;;;;;5055357;28;20047;-71
2021/10/18 15:12:57;;;;;;;4.13;1.73;;;28.00;54.80;;;;;;5057386;28;20032;-71
2021/10/18 15:16:02;;;;;;;4.07;1.70;;;28.20;53.90;;;;;;5057738;28;20036;-71
2021/10/18 15:19:06;;;;;;;3.92;2.50;;;27.20;53.80;;;;;;5069760;28;20047;-71
2021/10/18 15:22:14;;;;;;;6.13;3.80;;;26.90;55.70;;;;;;5071769;28;20399;-71
2021/10/18 15:25:19;;;;;;;4.70;2.72;;;26.90;55.90;;;;;;5051829;28;20032;-71
2021/10/18 15:28:23;;;;;;;9.23;6.63;;;27.00;55.40;;;;;;5063727;28;20047;-73
2021/10/18 15:31:28;;;;;;;12.98;4.20;;;26.70;55.70;;;;;;5069228;28;20051;-72
2021/10/18 15:34:31;;;;;;;2.35;2.05;;;26.40;56.20;;;;;;5051191;28;20044;-71
2021/10/18 15:37:36;;;;;;;3.95;2.03;;;25.90;56.60;;;;;;5050913;28;20063;-71
2021/10/18 15:40:40;;;;;;;3.20;2.00;;;25.60;56.70;;;;;;5061490;28;20052;-71
2021/10/18 15:43:44;;;;;;;2.90;2.20;;;25.20;57.60;;;;;;5071300;28;20044;-71
2021/10/18 15:46:48;;;;;;;3.72;2.47;;;24.80;58.50;;;;;;5052977;28;20051;-71
2021/10/18 15:49:52;;;;;;;8.35;3.13;;;24.30;59.70;;;;;;5056857;28;20495;-72
2021/10/18 15:52:56;;;;;;;5.85;3.08;;;23.70;59.90;;;;;;5051999;28;20048;-73
2021/10/18 15:56:02;;;;;;;7.55;4.57;;;23.20;60.90;;;;;;5051000;28;20048;-73
2021/10/18 15:59:06;;;;;;;8.95;5.22;;;22.80;61.80;;;;;;5056309;28;20048;-72
2021/10/18 16:02:12;;;;;;;12.70;4.90;;;22.30;63.00;;;;;;5053610;28;20422;-72
2021/10/18 16:05:16;;;;;;;6.18;3.42;;;21.90;64.10;;;;;;5051243;28;20047;-72
2021/10/18 16:08:19;;;;;;;7.75;2.90;;;21.40;65.10;;;;;;5056541;28;20059;-72
2021/10/18 16:11:23;;;;;;;7.03;3.47;;;21.00;65.80;;;;;;5050965;28;20032;-72
2021/10/18 16:14:28;;;;;;;6.28;3.33;;;20.70;67.40;;;;;;5050464;28;20048;-70
2021/10/18 16:17:32;;;;;;;12.00;4.32;;;20.30;67.90;;;;;;5062907;28;20051;-72
2021/10/18 16:20:38;;;;;;;8.52;4.03;;;19.90;68.30;;;;;;5068606;28;20048;-72
2021/10/18 16:23:41;;;;;;;4.88;3.22;;;19.60;68.90;;;;;;5050457;28;20408;-70
2021/10/18 16:26:45;;;;;;;8.95;3.90;;;19.40;69.60;;;;;;5050507;28;20051;-72
2021/10/18 16:29:49;;;;;;;8.90;3.28;;;19.10;70.70;;;;;;5049318;28;20055;-72
2021/10/18 16:32:53;;;;;;;13.15;4.57;;;18.80;71.30;;;;;;5050642;28;20396;-72
2021/10/18 16:35:57;;;;;;;9.63;4.05;;;18.60;72.90;;;;;;5050288;28;20056;-72
2021/10/18 16:39:01;;;;;;;7.60;4.25;;;18.30;74.00;;;;;;5049032;28;20407;-73
2021/10/18 16:42:05;;;;;;;7.15;4.07;;;18.00;75.20;;;;;;5050681;28;20043;-73
2021/10/18 16:45:11;;;;;;;10.85;3.88;;;17.60;76.10;;;;;;5050938;28;20399;-72
2021/10/18 16:48:15;;;;;;;22.58;4.63;;;17.40;76.80;;;;;;5049786;28;20530;-73
2021/10/18 16:51:19;;;;;;;11.32;4.90;;;17.20;77.60;;;;;;5052765;28;20048;-72
2021/10/18 16:54:24;;;;;;;10.48;4.72;;;17.00;78.30;;;;;;5050147;28;20044;-72
2021/10/18 16:57:28;;;;;;;10.07;3.83;;;16.80;79.00;;;;;;5055479;28;20040;-72
2021/10/18 17:00:32;;;;;;;6.72;4.00;;;16.70;79.50;;;;;;5049519;28;20048;-73
2021/10/18 17:03:36;;;;;;;18.17;5.40;;;16.60;80.10;;;;;;5050288;28;20056;-72
2021/10/18 17:06:40;;;;;;;12.32;5.03;;;16.50;80.40;;;;;;5056515;28;20040;-72
2021/10/18 17:09:44;;;;;;;14.65;4.63;;;16.40;80.50;;;;;;5049423;28;20052;-72
2021/10/18 17:12:48;;;;;;;11.07;4.50;;;16.40;80.80;;;;;;5050257;28;20047;-72